sensor_id;sensor_type;location;lat;lon;timestamp;P1;durP1;ratioP1;P2;durP2;ratioP2
11671;SDS011;5892;43.412;24.612;2024-01-25T00:01:24;13.48;;;6.55;;
11671;SDS011;5892;43.412;24.612;2024-01-25T00:03:50;8.85;;;5.90;;
11671;SDS011;5892;43.412;24.612;2024-01-25T00:06:16;11.65;;;5.53;;
11671;SDS011;5892;43.412;24.612;2024-01-25T00:12:22;7.22;;;4.07;;
11671;SDS011;5892;43.412;24.612;2024-01-25T00:14:48;10.20;;;4.25;;
11671;SDS011;5892;43.412;24.612;2024-01-25T00:20:36;7.45;;;4.10;;
11671;SDS011;5892;43.412;24.612;2024-01-25T00:23:02;7.15;;;4.70;;
11671;SDS011;5892;43.412;24.612;2024-01-25T00:53:09;2.78;;;2.25;;
11671;SDS011;5892;43.412;24.612;2024-01-25T00:55:34;4.85;;;2.55;;
11671;SDS011;5892;43.412;24.612;2024-01-25T01:01:24;7.13;;;4.20;;
11671;SDS011;5892;43.412;24.612;2024-01-25T01:03:50;7.53;;;3.60;;
11671;SDS011;5892;43.412;24.612;2024-01-25T01:06:19;4.43;;;3.10;;
11671;SDS011;5892;43.412;24.612;2024-01-25T01:08:45;4.43;;;2.65;;
11671;SDS011;5892;43.412;24.612;2024-01-25T01:11:12;4.72;;;2.28;;
11671;SDS011;5892;43.412;24.612;2024-01-25T01:13:38;4.05;;;2.08;;
11671;SDS011;5892;43.412;24.612;2024-01-25T01:16:04;4.53;;;2.40;;
11671;SDS011;5892;43.412;24.612;2024-01-25T01:18:31;5.18;;;2.58;;
11671;SDS011;5892;43.412;24.612;2024-01-25T01:20:56;2.70;;;1.35;;
11671;SDS011;5892;43.412;24.612;2024-01-25T01:23:22;2.95;;;1.38;;
11671;SDS011;5892;43.412;24.612;2024-01-25T01:25:48;3.58;;;1.38;;
11671;SDS011;5892;43.412;24.612;2024-01-25T01:28:13;3.15;;;1.70;;
11671;SDS011;5892;43.412;24.612;2024-01-25T01:30:39;4.03;;;2.00;;
11671;SDS011;5892;43.412;24.612;2024-01-25T01:33:09;4.53;;;2.00;;
11671;SDS011;5892;43.412;24.612;2024-01-25T01:35:37;5.00;;;2.60;;
11671;SDS011;5892;43.412;24.612;2024-01-25T01:38:03;5.45;;;3.30;;
11671;SDS011;5892;43.412;24.612;2024-01-25T01:40:30;3.88;;;2.22;;
11671;SDS011;5892;43.412;24.612;2024-01-25T03:03:38;1.52;;;0.70;;
11671;SDS011;5892;43.412;24.612;2024-01-25T03:06:05;2.85;;;1.02;;
11671;SDS011;5892;43.412;24.612;2024-01-25T03:08:34;2.40;;;0.65;;
11671;SDS011;5892;43.412;24.612;2024-01-25T03:34:43;1.50;;;0.45;;
11671;SDS011;5892;43.412;24.612;2024-01-25T03:37:10;1.52;;;0.70;;
11671;SDS011;5892;43.412;24.612;2024-01-25T03:39:36;3.45;;;0.70;;
11671;SDS011;5892;43.412;24.612;2024-01-25T03:42:01;3.30;;;0.98;;
11671;SDS011;5892;43.412;24.612;2024-01-25T03:44:27;1.95;;;0.88;;
11671;SDS011;5892;43.412;24.612;2024-01-25T03:46:52;1.40;;;0.73;;
11671;SDS011;5892;43.412;24.612;2024-01-25T03:49:20;3.35;;;1.15;;
11671;SDS011;5892;43.412;24.612;2024-01-25T03:51:48;1.48;;;0.75;;
11671;SDS011;5892;43.412;24.612;2024-01-25T03:54:16;1.17;;;0.60;;
11671;SDS011;5892;43.412;24.612;2024-01-25T03:56:42;3.83;;;0.60;;
11671;SDS011;5892;43.412;24.612;2024-01-25T03:59:07;1.70;;;0.52;;
11671;SDS011;5892;43.412;24.612;2024-01-25T04:01:41;1.45;;;0.52;;
11671;SDS011;5892;43.412;24.612;2024-01-25T04:04:08;2.30;;;0.93;;
11671;SDS011;5892;43.412;24.612;2024-01-25T04:06:37;2.88;;;0.90;;
11671;SDS011;5892;43.412;24.612;2024-01-25T04:09:06;1.65;;;0.90;;
11671;SDS011;5892;43.412;24.612;2024-01-25T04:11:31;1.55;;;0.40;;
11671;SDS011;5892;43.412;24.612;2024-01-25T04:13:57;1.10;;;0.70;;
11671;SDS011;5892;43.412;24.612;2024-01-25T04:16:23;1.77;;;0.90;;
11671;SDS011;5892;43.412;24.612;2024-01-25T04:18:50;1.58;;;0.68;;
11671;SDS011;5892;43.412;24.612;2024-01-25T04:21:16;1.98;;;1.10;;
11671;SDS011;5892;43.412;24.612;2024-01-25T04:23:41;2.13;;;1.08;;
11671;SDS011;5892;43.412;24.612;2024-01-25T04:26:08;1.60;;;1.20;;
11671;SDS011;5892;43.412;24.612;2024-01-25T04:28:37;0.95;;;0.40;;
11671;SDS011;5892;43.412;24.612;2024-01-25T04:34:16;2.03;;;0.82;;
11671;SDS011;5892;43.412;24.612;2024-01-25T04:36:42;1.65;;;0.60;;
11671;SDS011;5892;43.412;24.612;2024-01-25T04:39:08;2.65;;;1.33;;
11671;SDS011;5892;43.412;24.612;2024-01-25T04:41:33;3.05;;;1.38;;
11671;SDS011;5892;43.412;24.612;2024-01-25T04:44:01;1.73;;;0.80;;
11671;SDS011;5892;43.412;24.612;2024-01-25T04:46:26;1.90;;;0.90;;
11671;SDS011;5892;43.412;24.612;2024-01-25T04:48:54;1.95;;;0.70;;
11671;SDS011;5892;43.412;24.612;2024-01-25T04:51:20;2.10;;;1.30;;
11671;SDS011;5892;43.412;24.612;2024-01-25T04:53:45;1.90;;;0.60;;
11671;SDS011;5892;43.412;24.612;2024-01-25T04:56:13;2.38;;;1.13;;
11671;SDS011;5892;43.412;24.612;2024-01-25T04:58:39;4.85;;;1.40;;
11671;SDS011;5892;43.412;24.612;2024-01-25T05:01:05;1.90;;;1.27;;
11671;SDS011;5892;43.412;24.612;2024-01-25T05:03:32;2.90;;;1.75;;
11671;SDS011;5892;43.412;24.612;2024-01-25T05:05:58;4.88;;;1.38;;
11671;SDS011;5892;43.412;24.612;2024-01-25T05:08:23;2.72;;;1.30;;
11671;SDS011;5892;43.412;24.612;2024-01-25T05:10:50;2.53;;;1.10;;
11671;SDS011;5892;43.412;24.612;2024-01-25T05:13:16;3.30;;;1.60;;
11671;SDS011;5892;43.412;24.612;2024-01-25T05:15:41;3.22;;;0.60;;
11671;SDS011;5892;43.412;24.612;2024-01-25T05:18:07;4.45;;;0.85;;
11671;SDS011;5892;43.412;24.612;2024-01-25T05:20:33;2.10;;;1.13;;
11671;SDS011;5892;43.412;24.612;2024-01-25T05:35:57;1.85;;;0.88;;
11671;SDS011;5892;43.412;24.612;2024-01-25T05:38:24;1.70;;;0.90;;
11671;SDS011;5892;43.412;24.612;2024-01-25T05:40:50;4.18;;;1.30;;
11671;SDS011;5892;43.412;24.612;2024-01-25T05:43:16;3.83;;;1.50;;
11671;SDS011;5892;43.412;24.612;2024-01-25T05:45:43;2.15;;;1.02;;
11671;SDS011;5892;43.412;24.612;2024-01-25T05:48:10;2.10;;;1.05;;
11671;SDS011;5892;43.412;24.612;2024-01-25T05:50:36;2.22;;;0.85;;
11671;SDS011;5892;43.412;24.612;2024-01-25T05:53:10;2.50;;;1.58;;
11671;SDS011;5892;43.412;24.612;2024-01-25T05:55:38;3.40;;;1.75;;
11671;SDS011;5892;43.412;24.612;2024-01-25T06:12:04;4.95;;;2.17;;
11671;SDS011;5892;43.412;24.612;2024-01-25T06:14:30;4.45;;;1.95;;
11671;SDS011;5892;43.412;24.612;2024-01-25T06:16:55;6.68;;;1.77;;
11671;SDS011;5892;43.412;24.612;2024-01-25T06:25:33;3.53;;;1.42;;
11671;SDS011;5892;43.412;24.612;2024-01-25T06:28:04;2.95;;;0.93;;
11671;SDS011;5892;43.412;24.612;2024-01-25T06:30:29;5.22;;;1.27;;
11671;SDS011;5892;43.412;24.612;2024-01-25T06:32:55;5.47;;;1.90;;
11671;SDS011;5892;43.412;24.612;2024-01-25T06:35:21;3.83;;;1.30;;
11671;SDS011;5892;43.412;24.612;2024-01-25T06:40:35;2.50;;;1.15;;
11671;SDS011;5892;43.412;24.612;2024-01-25T06:43:00;3.45;;;1.77;;
11671;SDS011;5892;43.412;24.612;2024-01-25T06:45:28;3.25;;;1.20;;
11671;SDS011;5892;43.412;24.612;2024-01-25T06:47:54;2.60;;;1.15;;
11671;SDS011;5892;43.412;24.612;2024-01-25T06:50:21;3.60;;;1.48;;
11671;SDS011;5892;43.412;24.612;2024-01-25T06:52:49;3.70;;;1.02;;
11671;SDS011;5892;43.412;24.612;2024-01-25T06:55:18;4.63;;;1.40;;
11671;SDS011;5892;43.412;24.612;2024-01-25T06:57:45;3.25;;;1.35;;
11671;SDS011;5892;43.412;24.612;2024-01-25T07:00:11;3.58;;;1.08;;
11671;SDS011;5892;43.412;24.612;2024-01-25T07:02:39;3.42;;;1.40;;
11671;SDS011;5892;43.412;24.612;2024-01-25T07:05:05;4.18;;;1.13;;
11671;SDS011;5892;43.412;24.612;2024-01-25T07:07:33;3.13;;;1.20;;
11671;SDS011;5892;43.412;24.612;2024-01-25T07:09:58;2.63;;;1.00;;
11671;SDS011;5892;43.412;24.612;2024-01-25T07:12:26;4.40;;;1.15;;
11671;SDS011;5892;43.412;24.612;2024-01-25T07:14:54;5.50;;;1.30;;
11671;SDS011;5892;43.412;24.612;2024-01-25T07:17:21;5.72;;;2.83;;
11671;SDS011;5892;43.412;24.612;2024-01-25T07:19:47;7.25;;;1.77;;
11671;SDS011;5892;43.412;24.612;2024-01-25T07:22:15;2.95;;;1.60;;
11671;SDS011;5892;43.412;24.612;2024-01-25T07:24:42;2.58;;;1.10;;
11671;SDS011;5892;43.412;24.612;2024-01-25T07:27:09;4.82;;;1.48;;
11671;SDS011;5892;43.412;24.612;2024-01-25T07:29:38;4.55;;;1.70;;
11671;SDS011;5892;43.412;24.612;2024-01-25T07:32:03;3.13;;;1.10;;
11671;SDS011;5892;43.412;24.612;2024-01-25T07:34:29;4.85;;;1.15;;
11671;SDS011;5892;43.412;24.612;2024-01-25T07:36:56;7.60;;;2.22;;
11671;SDS011;5892;43.412;24.612;2024-01-25T07:39:21;6.20;;;1.20;;
11671;SDS011;5892;43.412;24.612;2024-01-25T07:41:47;3.38;;;1.13;;
11671;SDS011;5892;43.412;24.612;2024-01-25T07:44:14;4.65;;;1.35;;
11671;SDS011;5892;43.412;24.612;2024-01-25T07:46:40;4.60;;;1.38;;
11671;SDS011;5892;43.412;24.612;2024-01-25T07:49:07;4.05;;;1.45;;
11671;SDS011;5892;43.412;24.612;2024-01-25T07:51:33;7.65;;;1.90;;
11671;SDS011;5892;43.412;24.612;2024-01-25T07:53:59;5.95;;;1.98;;
11671;SDS011;5892;43.412;24.612;2024-01-25T07:56:25;4.65;;;1.23;;
11671;SDS011;5892;43.412;24.612;2024-01-25T07:58:50;3.85;;;1.83;;
11671;SDS011;5892;43.412;24.612;2024-01-25T08:01:19;4.18;;;1.33;;
11671;SDS011;5892;43.412;24.612;2024-01-25T08:03:46;5.70;;;1.52;;
11671;SDS011;5892;43.412;24.612;2024-01-25T08:06:12;5.35;;;2.05;;
11671;SDS011;5892;43.412;24.612;2024-01-25T08:08:38;7.20;;;1.67;;
11671;SDS011;5892;43.412;24.612;2024-01-25T08:11:06;5.28;;;2.03;;
11671;SDS011;5892;43.412;24.612;2024-01-25T08:13:42;5.05;;;1.83;;
11671;SDS011;5892;43.412;24.612;2024-01-25T08:16:14;5.97;;;1.27;;
11671;SDS011;5892;43.412;24.612;2024-01-25T08:18:47;7.40;;;1.70;;
11671;SDS011;5892;43.412;24.612;2024-01-25T08:21:13;5.70;;;2.08;;
11671;SDS011;5892;43.412;24.612;2024-01-25T08:37:19;11.13;;;1.73;;
11671;SDS011;5892;43.412;24.612;2024-01-25T08:39:44;6.78;;;2.00;;
11671;SDS011;5892;43.412;24.612;2024-01-25T08:42:14;10.55;;;3.10;;
11671;SDS011;5892;43.412;24.612;2024-01-25T08:44:40;8.98;;;2.17;;
11671;SDS011;5892;43.412;24.612;2024-01-25T08:53:28;19.20;;;5.88;;
11671;SDS011;5892;43.412;24.612;2024-01-25T09:04:58;68.82;;;16.73;;
11671;SDS011;5892;43.412;24.612;2024-01-25T09:07:25;43.50;;;10.43;;
11671;SDS011;5892;43.412;24.612;2024-01-25T09:13:14;15.18;;;5.55;;
11671;SDS011;5892;43.412;24.612;2024-01-25T09:15:40;15.23;;;4.45;;
11671;SDS011;5892;43.412;24.612;2024-01-25T09:18:06;16.45;;;5.75;;
11671;SDS011;5892;43.412;24.612;2024-01-25T09:20:33;15.88;;;5.40;;
11671;SDS011;5892;43.412;24.612;2024-01-25T09:22:58;18.90;;;6.43;;
11671;SDS011;5892;43.412;24.612;2024-01-25T09:25:24;26.75;;;8.85;;
11671;SDS011;5892;43.412;24.612;2024-01-25T09:27:49;19.92;;;6.88;;
11671;SDS011;5892;43.412;24.612;2024-01-25T09:30:25;17.95;;;5.70;;
11671;SDS011;5892;43.412;24.612;2024-01-25T09:32:53;30.20;;;9.18;;
11671;SDS011;5892;43.412;24.612;2024-01-25T09:35:22;85.53;;;28.77;;
11671;SDS011;5892;43.412;24.612;2024-01-25T09:37:48;25.42;;;8.85;;
11671;SDS011;5892;43.412;24.612;2024-01-25T09:40:17;31.52;;;10.45;;
11671;SDS011;5892;43.412;24.612;2024-01-25T09:42:48;20.15;;;7.22;;
11671;SDS011;5892;43.412;24.612;2024-01-25T09:45:17;31.58;;;11.63;;
11671;SDS011;5892;43.412;24.612;2024-01-25T09:51:27;17.77;;;6.60;;
11671;SDS011;5892;43.412;24.612;2024-01-25T10:02:14;38.00;;;14.00;;
11671;SDS011;5892;43.412;24.612;2024-01-25T10:04:42;35.88;;;11.93;;
11671;SDS011;5892;43.412;24.612;2024-01-25T10:07:14;35.90;;;13.68;;
11671;SDS011;5892;43.412;24.612;2024-01-25T10:09:41;11.02;;;4.22;;
11671;SDS011;5892;43.412;24.612;2024-01-25T10:12:09;27.00;;;8.52;;
11671;SDS011;5892;43.412;24.612;2024-01-25T10:14:41;26.83;;;10.38;;
11671;SDS011;5892;43.412;24.612;2024-01-25T10:17:10;9.32;;;3.03;;
11671;SDS011;5892;43.412;24.612;2024-01-25T10:19:42;40.28;;;17.02;;
11671;SDS011;5892;43.412;24.612;2024-01-25T10:22:10;25.52;;;9.68;;
11671;SDS011;5892;43.412;24.612;2024-01-25T10:24:49;14.85;;;4.40;;
11671;SDS011;5892;43.412;24.612;2024-01-25T10:27:21;17.13;;;6.03;;
11671;SDS011;5892;43.412;24.612;2024-01-25T10:29:49;11.73;;;4.28;;
11671;SDS011;5892;43.412;24.612;2024-01-25T10:32:17;35.67;;;13.60;;
11671;SDS011;5892;43.412;24.612;2024-01-25T10:34:44;9.70;;;4.38;;
11671;SDS011;5892;43.412;24.612;2024-01-25T10:37:13;14.57;;;4.55;;
11671;SDS011;5892;43.412;24.612;2024-01-25T10:39:41;11.15;;;4.15;;
11671;SDS011;5892;43.412;24.612;2024-01-25T10:42:14;10.25;;;2.75;;
11671;SDS011;5892;43.412;24.612;2024-01-25T10:44:39;8.65;;;3.60;;
11671;SDS011;5892;43.412;24.612;2024-01-25T10:47:07;7.65;;;2.75;;
11671;SDS011;5892;43.412;24.612;2024-01-25T10:49:35;14.95;;;6.70;;
11671;SDS011;5892;43.412;24.612;2024-01-25T10:52:04;16.88;;;5.60;;
11671;SDS011;5892;43.412;24.612;2024-01-25T10:54:33;6.80;;;2.97;;
11671;SDS011;5892;43.412;24.612;2024-01-25T10:56:59;7.95;;;2.88;;
11671;SDS011;5892;43.412;24.612;2024-01-25T10:59:25;8.93;;;2.17;;
11671;SDS011;5892;43.412;24.612;2024-01-25T11:01:54;10.88;;;2.90;;
11671;SDS011;5892;43.412;24.612;2024-01-25T11:04:19;11.38;;;4.07;;
11671;SDS011;5892;43.412;24.612;2024-01-25T11:06:46;13.63;;;4.18;;
11671;SDS011;5892;43.412;24.612;2024-01-25T11:09:19;5.47;;;2.15;;
11671;SDS011;5892;43.412;24.612;2024-01-25T11:11:46;10.82;;;4.43;;
11671;SDS011;5892;43.412;24.612;2024-01-25T11:14:14;13.98;;;4.88;;
11671;SDS011;5892;43.412;24.612;2024-01-25T11:31:22;9.93;;;4.05;;
11671;SDS011;5892;43.412;24.612;2024-01-25T11:33:50;11.68;;;3.30;;
11671;SDS011;5892;43.412;24.612;2024-01-25T11:36:19;8.00;;;3.05;;
11671;SDS011;5892;43.412;24.612;2024-01-25T11:38:48;5.68;;;2.65;;
11671;SDS011;5892;43.412;24.612;2024-01-25T11:44:32;8.52;;;3.22;;
11671;SDS011;5892;43.412;24.612;2024-01-25T11:47:01;7.50;;;2.28;;
11671;SDS011;5892;43.412;24.612;2024-01-25T11:49:28;10.93;;;3.25;;
11671;SDS011;5892;43.412;24.612;2024-01-25T11:51:58;11.85;;;3.85;;
11671;SDS011;5892;43.412;24.612;2024-01-25T11:57:54;15.95;;;3.78;;
11671;SDS011;5892;43.412;24.612;2024-01-25T12:15:10;9.48;;;3.22;;
11671;SDS011;5892;43.412;24.612;2024-01-25T12:17:36;7.38;;;2.75;;
11671;SDS011;5892;43.412;24.612;2024-01-25T12:20:07;9.13;;;3.97;;
11671;SDS011;5892;43.412;24.612;2024-01-25T12:22:36;13.15;;;5.07;;
11671;SDS011;5892;43.412;24.612;2024-01-25T12:25:08;16.23;;;5.05;;
11671;SDS011;5892;43.412;24.612;2024-01-25T12:27:35;9.30;;;3.20;;
11671;SDS011;5892;43.412;24.612;2024-01-25T12:33:41;9.90;;;3.83;;
11671;SDS011;5892;43.412;24.612;2024-01-25T12:59:49;9.57;;;2.40;;
11671;SDS011;5892;43.412;24.612;2024-01-25T13:02:15;8.00;;;2.10;;
11671;SDS011;5892;43.412;24.612;2024-01-25T13:08:04;7.20;;;2.78;;
11671;SDS011;5892;43.412;24.612;2024-01-25T13:10:32;13.15;;;2.58;;
11671;SDS011;5892;43.412;24.612;2024-01-25T13:12:57;10.15;;;2.25;;
11671;SDS011;5892;43.412;24.612;2024-01-25T13:15:25;10.32;;;2.40;;
11671;SDS011;5892;43.412;24.612;2024-01-25T13:17:57;6.70;;;2.15;;
11671;SDS011;5892;43.412;24.612;2024-01-25T13:20:23;6.95;;;2.53;;
11671;SDS011;5892;43.412;24.612;2024-01-25T13:22:49;9.40;;;2.15;;
11671;SDS011;5892;43.412;24.612;2024-01-25T13:25:16;8.43;;;2.50;;
11671;SDS011;5892;43.412;24.612;2024-01-25T13:27:46;10.60;;;2.20;;
11671;SDS011;5892;43.412;24.612;2024-01-25T14:18:54;9.40;;;3.13;;
11671;SDS011;5892;43.412;24.612;2024-01-25T14:27:43;11.15;;;2.50;;
11671;SDS011;5892;43.412;24.612;2024-01-25T14:30:14;9.25;;;2.42;;
11671;SDS011;5892;43.412;24.612;2024-01-25T14:32:40;8.48;;;2.25;;
11671;SDS011;5892;43.412;24.612;2024-01-25T14:35:14;7.68;;;2.33;;
11671;SDS011;5892;43.412;24.612;2024-01-25T14:37:42;7.90;;;2.80;;
11671;SDS011;5892;43.412;24.612;2024-01-25T14:43:35;9.63;;;2.42;;
11671;SDS011;5892;43.412;24.612;2024-01-25T14:46:04;7.55;;;2.63;;
11671;SDS011;5892;43.412;24.612;2024-01-25T14:48:31;7.43;;;2.55;;
11671;SDS011;5892;43.412;24.612;2024-01-25T14:50:58;8.63;;;2.70;;
11671;SDS011;5892;43.412;24.612;2024-01-25T14:53:25;6.78;;;1.98;;
11671;SDS011;5892;43.412;24.612;2024-01-25T14:55:53;12.40;;;3.80;;
11671;SDS011;5892;43.412;24.612;2024-01-25T14:58:20;16.25;;;3.50;;
11671;SDS011;5892;43.412;24.612;2024-01-25T15:38:36;6.13;;;2.28;;
11671;SDS011;5892;43.412;24.612;2024-01-25T15:41:03;5.55;;;1.92;;
11671;SDS011;5892;43.412;24.612;2024-01-25T15:51:31;9.90;;;3.65;;
11671;SDS011;5892;43.412;24.612;2024-01-25T15:54:06;7.88;;;3.15;;
11671;SDS011;5892;43.412;24.612;2024-01-25T16:09:56;9.50;;;3.72;;
11671;SDS011;5892;43.412;24.612;2024-01-25T16:12:23;7.85;;;2.60;;
11671;SDS011;5892;43.412;24.612;2024-01-25T16:14:49;10.57;;;3.40;;
11671;SDS011;5892;43.412;24.612;2024-01-25T16:17:16;7.53;;;2.60;;
11671;SDS011;5892;43.412;24.612;2024-01-25T16:27:59;11.50;;;2.92;;
11671;SDS011;5892;43.412;24.612;2024-01-25T16:30:40;9.93;;;3.15;;
11671;SDS011;5892;43.412;24.612;2024-01-25T16:33:07;10.55;;;3.33;;
11671;SDS011;5892;43.412;24.612;2024-01-25T16:35:34;9.90;;;3.95;;
11671;SDS011;5892;43.412;24.612;2024-01-25T16:38:01;10.52;;;2.25;;
11671;SDS011;5892;43.412;24.612;2024-01-25T16:43:31;12.55;;;3.70;;
11671;SDS011;5892;43.412;24.612;2024-01-25T16:46:03;10.52;;;3.85;;
11671;SDS011;5892;43.412;24.612;2024-01-25T16:48:35;9.98;;;2.88;;
11671;SDS011;5892;43.412;24.612;2024-01-25T17:15:19;11.27;;;3.10;;
11671;SDS011;5892;43.412;24.612;2024-01-25T18:22:31;6.90;;;1.80;;
11671;SDS011;5892;43.412;24.612;2024-01-25T21:46:29;8.25;;;1.45;;
11671;SDS011;5892;43.412;24.612;2024-01-25T21:48:57;11.60;;;1.95;;
11671;SDS011;5892;43.412;24.612;2024-01-25T21:51:25;7.07;;;1.73;;
11671;SDS011;5892;43.412;24.612;2024-01-25T21:54:06;12.05;;;1.85;;
11671;SDS011;5892;43.412;24.612;2024-01-25T21:56:37;7.00;;;2.55;;
11671;SDS011;5892;43.412;24.612;2024-01-25T21:59:16;6.78;;;1.42;;
11671;SDS011;5892;43.412;24.612;2024-01-25T22:01:43;6.25;;;1.65;;
11671;SDS011;5892;43.412;24.612;2024-01-25T22:07:03;7.35;;;1.92;;
11671;SDS011;5892;43.412;24.612;2024-01-25T22:09:30;7.28;;;1.40;;
11671;SDS011;5892;43.412;24.612;2024-01-25T22:11:56;5.20;;;1.80;;
11671;SDS011;5892;43.412;24.612;2024-01-25T22:14:21;5.07;;;1.42;;
11671;SDS011;5892;43.412;24.612;2024-01-25T23:36:37;10.73;;;1.83;;
11671;SDS011;5892;43.412;24.612;2024-01-25T23:39:04;5.05;;;1.10;;
11671;SDS011;5892;43.412;24.612;2024-01-25T23:41:30;6.07;;;1.60;;
11671;SDS011;5892;43.412;24.612;2024-01-25T23:43:58;6.22;;;1.25;;
11671;SDS011;5892;43.412;24.612;2024-01-25T23:46:23;4.13;;;1.10;;
11671;SDS011;5892;43.412;24.612;2024-01-25T23:48:49;6.65;;;1.40;;
11671;SDS011;5892;43.412;24.612;2024-01-25T23:51:14;4.65;;;1.00;;
11671;SDS011;5892;43.412;24.612;2024-01-25T23:53:42;5.03;;;1.58;;
11671;SDS011;5892;43.412;24.612;2024-01-25T23:56:08;4.57;;;1.17;;
11671;SDS011;5892;43.412;24.612;2024-01-25T23:58:33;8.07;;;2.42;;
